createdAt,value
2023-03-27T00:01:46.554Z,7.23
2023-03-27T00:04:50.943Z,6.88
2023-03-27T00:07:58.816Z,6.66
2023-03-27T00:11:03.209Z,6.68
2023-03-27T00:14:07.693Z,7.66
2023-03-27T00:17:11.953Z,8.52
2023-03-27T00:20:18.107Z,8.74
2023-03-27T00:23:23.555Z,8.86
2023-03-27T00:26:27.287Z,8.58
2023-03-27T00:29:31.796Z,8.69
2023-03-27T00:32:36.427Z,9.07
2023-03-27T00:35:40.588Z,8.98
2023-03-27T00:38:46.533Z,9.40
2023-03-27T00:41:51.209Z,8.76
2023-03-27T00:44:55.917Z,8.75
2023-03-27T00:48:05.225Z,8.20
2023-03-27T00:51:11.027Z,8.18
2023-03-27T00:54:22.617Z,8.95
2023-03-27T00:57:28.445Z,9.85
2023-03-27T01:00:33.851Z,9.91
2023-03-27T01:03:38.180Z,10.89
2023-03-27T01:06:44.374Z,11.19
2023-03-27T01:09:49.004Z,11.26
2023-03-27T01:13:16.728Z,11.76
2023-03-27T01:16:29.795Z,12.04
2023-03-27T01:19:58.449Z,11.99
2023-03-27T01:23:09.957Z,11.76
2023-03-27T01:26:46.133Z,11.51
2023-03-27T01:30:02.295Z,12.16
2023-03-27T01:33:28.542Z,11.79
2023-03-27T01:36:48.888Z,12.01
2023-03-27T01:39:59.378Z,11.90
2023-03-27T01:43:11.972Z,12.10
2023-03-27T01:46:21.171Z,12.28
2023-03-27T01:49:49.755Z,12.31
2023-03-27T01:53:07.030Z,12.81
2023-03-27T01:56:27.020Z,13.21
2023-03-27T01:59:49.360Z,13.42
2023-03-27T02:03:15.320Z,12.13
2023-03-27T02:06:31.482Z,12.63
2023-03-27T02:09:45.203Z,12.39
2023-03-27T02:13:34.120Z,12.47
2023-03-27T02:16:46.885Z,11.95
2023-03-27T02:20:04.363Z,11.51
2023-03-27T02:23:18.538Z,11.38
2023-03-27T02:26:25.539Z,11.69
2023-03-27T02:29:42.572Z,10.46
2023-03-27T02:32:58.137Z,11.37
2023-03-27T02:36:29.535Z,11.49
2023-03-27T02:39:51.241Z,11.03
2023-03-27T02:43:17.680Z,10.63
2023-03-27T02:46:31.311Z,10.41
2023-03-27T02:49:47.531Z,11.18
2023-03-27T02:52:57.888Z,10.89
2023-03-27T02:56:05.192Z,10.94
2023-03-27T02:59:37.911Z,11.43
2023-03-27T03:02:43.003Z,11.32
2023-03-27T03:05:47.718Z,11.29
2023-03-27T03:08:55.610Z,11.39
2023-03-27T03:12:00.802Z,11.39
2023-03-27T03:15:08.130Z,10.84
2023-03-27T03:18:14.011Z,10.84
2023-03-27T03:21:18.612Z,11.05
2023-03-27T03:24:23.264Z,10.98
2023-03-27T03:27:29.912Z,10.25
2023-03-27T03:30:46.528Z,10.65
2023-03-27T03:33:50.519Z,10.33
2023-03-27T03:36:56.198Z,10.49
2023-03-27T03:40:12.632Z,10.20
2023-03-27T03:43:26.755Z,10.12
2023-03-27T03:46:31.909Z,10.28
2023-03-27T03:49:36.870Z,10.42
2023-03-27T03:52:41.784Z,10.40
2023-03-27T03:55:47.332Z,10.12
2023-03-27T03:58:51.678Z,10.29
2023-03-27T04:01:58.401Z,10.03
2023-03-27T04:05:08.560Z,10.23
2023-03-27T04:08:15.220Z,10.26
2023-03-27T04:11:54.690Z,10.01
2023-03-27T04:15:28.338Z,9.92
2023-03-27T04:18:42.566Z,10.05
2023-03-27T04:21:57.242Z,9.89
2023-03-27T04:25:07.770Z,9.89
2023-03-27T04:28:17.213Z,10.26
2023-03-27T04:31:27.011Z,10.01
2023-03-27T04:34:51.132Z,9.69
2023-03-27T04:38:18.130Z,9.78
2023-03-27T04:41:23.627Z,9.49
2023-03-27T04:44:30.163Z,9.72
2023-03-27T04:47:38.798Z,9.80
2023-03-27T04:50:50.311Z,9.45
2023-03-27T04:54:08.898Z,9.41
2023-03-27T04:57:19.879Z,9.79
2023-03-27T05:00:26.441Z,9.93
2023-03-27T05:03:54.364Z,9.64
2023-03-27T05:07:11.079Z,9.37
2023-03-27T05:10:16.548Z,9.33
2023-03-27T05:13:20.810Z,9.35
2023-03-27T05:16:25.053Z,9.44
2023-03-27T05:19:34.337Z,9.53
2023-03-27T05:22:40.111Z,9.11
2023-03-27T05:26:00.130Z,9.77
2023-03-27T05:29:22.022Z,9.54
2023-03-27T05:32:36.465Z,9.51
2023-03-27T05:35:58.939Z,9.39
2023-03-27T05:39:05.466Z,9.33
2023-03-27T05:42:15.253Z,9.29
2023-03-27T05:45:20.964Z,9.34
2023-03-27T05:48:25.333Z,9.42
2023-03-27T05:51:35.119Z,9.31
2023-03-27T05:54:39.473Z,9.08
2023-03-27T05:57:48.060Z,9.01
2023-03-27T06:00:52.652Z,8.99
2023-03-27T06:03:58.702Z,9.25
2023-03-27T06:07:21.228Z,9.56
2023-03-27T06:10:26.663Z,9.63
2023-03-27T06:13:49.603Z,9.16
2023-03-27T06:16:58.265Z,9.39
2023-03-27T06:20:20.759Z,9.39
2023-03-27T06:23:28.896Z,9.48
2023-03-27T06:26:33.573Z,9.49
2023-03-27T06:29:42.744Z,9.27
2023-03-27T06:32:51.934Z,9.24
2023-03-27T06:36:01.182Z,9.22
2023-03-27T06:39:07.746Z,9.15
2023-03-27T06:42:12.455Z,8.81
2023-03-27T06:45:34.969Z,8.73
2023-03-27T06:48:54.570Z,9.32
2023-03-27T06:51:58.988Z,9.10
2023-03-27T06:55:04.982Z,8.85
2023-03-27T06:58:09.399Z,9.04
2023-03-27T07:01:14.348Z,8.99
2023-03-27T07:04:36.459Z,8.98
2023-03-27T07:07:58.295Z,9.00
2023-03-27T07:11:11.268Z,8.91
2023-03-27T07:14:30.896Z,8.62
2023-03-27T07:17:47.989Z,8.65
2023-03-27T07:20:56.485Z,9.01
2023-03-27T07:24:01.712Z,8.94
2023-03-27T07:27:10.367Z,8.61
2023-03-27T07:30:16.204Z,8.30
2023-03-27T07:33:21.731Z,8.58
2023-03-27T07:36:26.974Z,8.55
2023-03-27T07:39:42.252Z,8.53
2023-03-27T07:42:46.702Z,8.40
2023-03-27T07:45:58.654Z,8.27
2023-03-27T07:49:04.117Z,8.45
2023-03-27T07:52:10.139Z,8.48
2023-03-27T07:55:23.908Z,8.30
2023-03-27T07:58:38.418Z,8.23
2023-03-27T08:01:43.116Z,8.29
2023-03-27T08:04:48.037Z,8.31
2023-03-27T08:07:53.814Z,8.38
2023-03-27T08:11:29.640Z,8.36
2023-03-27T08:14:35.833Z,8.36
2023-03-27T08:17:55.243Z,8.29
2023-03-27T08:21:26.451Z,7.88
2023-03-27T08:24:31.984Z,8.00
2023-03-27T08:27:49.232Z,7.80
2023-03-27T08:30:54.261Z,7.79
2023-03-27T08:34:10.414Z,7.42
2023-03-27T08:37:22.127Z,7.78
2023-03-27T08:40:52.993Z,7.72
2023-03-27T08:44:07.160Z,7.49
2023-03-27T08:47:30.607Z,7.37
2023-03-27T08:50:57.261Z,7.44
2023-03-27T08:54:13.691Z,7.22
2023-03-27T08:57:23.941Z,7.27
2023-03-27T09:00:40.565Z,7.06
2023-03-27T09:04:06.650Z,6.87
2023-03-27T09:07:17.953Z,6.66
2023-03-27T09:10:57.007Z,6.46
2023-03-27T09:14:23.383Z,6.47
2023-03-27T09:17:40.557Z,6.01
2023-03-27T09:21:04.961Z,5.91
2023-03-27T09:24:17.590Z,5.77
2023-03-27T09:27:50.982Z,5.52
2023-03-27T09:31:41.228Z,5.52
2023-03-27T09:34:48.924Z,5.33
2023-03-27T09:38:32.722Z,5.15
2023-03-27T09:41:46.994Z,5.18
2023-03-27T09:44:59.707Z,5.05
2023-03-27T09:48:15.497Z,4.86
2023-03-27T09:51:41.254Z,4.33
2023-03-27T09:55:31.829Z,4.24
2023-03-27T09:58:47.828Z,4.26
2023-03-27T10:02:01.259Z,3.91
2023-03-27T10:05:23.027Z,4.02
2023-03-27T10:08:38.879Z,3.74
2023-03-27T10:12:19.433Z,3.64
2023-03-27T10:15:30.863Z,3.71
2023-03-27T10:18:43.164Z,3.51
2023-03-27T10:21:54.975Z,3.39
2023-03-27T10:25:30.445Z,3.48
2023-03-27T10:29:19.894Z,3.46
2023-03-27T10:32:45.752Z,3.02
2023-03-27T10:36:11.395Z,3.16
2023-03-27T10:39:17.656Z,3.16
2023-03-27T10:42:45.146Z,3.03
2023-03-27T10:45:54.445Z,3.01
2023-03-27T10:49:25.554Z,2.77
2023-03-27T10:53:15.939Z,2.85
2023-03-27T10:56:48.586Z,2.66
2023-03-27T11:00:25.553Z,2.40
2023-03-27T11:04:06.248Z,2.06
2023-03-27T11:07:42.768Z,1.98
2023-03-27T11:10:55.106Z,1.64
2023-03-27T11:14:20.046Z,1.43
2023-03-27T11:17:53.585Z,1.25
2023-03-27T11:21:56.846Z,1.18
2023-03-27T11:25:09.187Z,1.20
2023-03-27T11:28:32.675Z,1.04
2023-03-27T11:31:50.248Z,0.86
2023-03-27T11:35:18.739Z,0.79
2023-03-27T11:38:52.482Z,0.66
2023-03-27T11:42:00.459Z,0.66
2023-03-27T11:45:10.728Z,0.45
2023-03-27T11:48:43.630Z,0.33
2023-03-27T11:52:24.704Z,0.26
2023-03-27T11:55:52.144Z,0.50
2023-03-27T11:59:30.667Z,0.56
2023-03-27T12:03:00.415Z,0.17
2023-03-27T12:06:32.059Z,0.08
2023-03-27T12:09:57.938Z,-0.02
2023-03-27T12:14:01.545Z,-0.16
2023-03-27T12:17:32.890Z,-0.26
2023-03-27T12:21:16.662Z,-0.27
2023-03-27T12:25:04.635Z,-0.47
2023-03-27T12:29:23.358Z,-0.51
2023-03-27T12:33:02.554Z,-0.39
2023-03-27T12:36:15.064Z,-0.41
2023-03-27T12:39:27.994Z,-0.51
2023-03-27T12:43:05.278Z,-0.57
2023-03-27T12:46:40.891Z,-0.67
2023-03-27T12:49:57.512Z,-0.69
2023-03-27T12:53:20.083Z,-0.76
2023-03-27T12:56:35.528Z,-1.02
2023-03-27T12:59:51.639Z,-1.00
2023-03-27T13:03:18.309Z,-0.84
2023-03-27T13:07:01.134Z,-0.63
2023-03-27T13:10:34.153Z,-0.51
2023-03-27T13:14:06.619Z,-0.87
2023-03-27T13:17:51.784Z,-1.34
2023-03-27T13:21:19.895Z,-1.09
2023-03-27T13:24:34.486Z,-1.10
2023-03-27T13:27:38.851Z,-1.25
2023-03-27T13:30:45.587Z,-1.36
2023-03-27T13:34:29.642Z,-1.42
2023-03-27T13:37:48.936Z,-1.42
2023-03-27T13:40:56.444Z,-1.47
2023-03-27T13:44:08.985Z,-1.38
2023-03-27T13:47:33.928Z,-1.51
2023-03-27T13:51:01.840Z,-1.61
2023-03-27T13:54:33.511Z,-1.44
2023-03-27T13:58:01.083Z,-1.33
2023-03-27T14:01:35.095Z,-1.72
2023-03-27T14:05:09.901Z,-1.87
2023-03-27T14:08:34.427Z,-1.61
2023-03-27T14:12:28.768Z,-1.54
2023-03-27T14:16:04.457Z,-1.23
2023-03-27T14:20:00.412Z,-1.27
2023-03-27T14:23:29.212Z,-1.74
2023-03-27T14:26:47.005Z,-1.83
2023-03-27T14:30:21.492Z,-1.95
2023-03-27T14:34:15.450Z,-2.15
2023-03-27T14:37:29.738Z,-1.97
2023-03-27T14:40:48.261Z,-1.99
2023-03-27T14:43:57.823Z,-1.79
2023-03-27T14:47:12.760Z,-2.09
2023-03-27T14:50:20.009Z,-1.97
2023-03-27T14:53:29.402Z,-2.08
2023-03-27T14:56:48.523Z,-2.24
2023-03-27T15:00:08.770Z,-2.06
2023-03-27T15:03:25.116Z,-2.50
2023-03-27T15:06:30.208Z,-2.30
2023-03-27T15:09:38.136Z,-2.19
2023-03-27T15:13:02.464Z,-2.37
2023-03-27T15:16:08.374Z,-2.44
2023-03-27T15:19:20.806Z,-2.35
2023-03-27T15:22:37.936Z,-2.30
2023-03-27T15:25:47.984Z,-2.25
2023-03-27T15:29:10.235Z,-2.17
2023-03-27T15:32:19.811Z,-2.05
2023-03-27T15:35:36.165Z,-2.04
2023-03-27T15:38:40.823Z,-1.95
2023-03-27T15:41:45.570Z,-2.05
2023-03-27T15:44:49.689Z,-2.15
2023-03-27T15:48:07.615Z,-2.46
2023-03-27T15:51:28.841Z,-2.24
2023-03-27T15:54:36.350Z,-2.35
2023-03-27T15:57:41.916Z,-2.37
2023-03-27T16:00:51.868Z,-2.62
2023-03-27T16:04:03.340Z,-2.62
2023-03-27T16:07:22.182Z,-2.69
2023-03-27T16:10:32.344Z,-3.11
2023-03-27T16:14:00.339Z,-2.80
2023-03-27T16:17:28.809Z,-2.78
2023-03-27T16:20:38.139Z,-3.02
2023-03-27T16:23:44.679Z,-3.21
2023-03-27T16:26:49.577Z,-3.01
2023-03-27T16:29:55.273Z,-3.19
2023-03-27T16:33:00.787Z,-3.22
2023-03-27T16:36:05.560Z,-3.03
2023-03-27T16:39:13.033Z,-3.39
2023-03-27T16:42:25.799Z,-3.45
2023-03-27T16:45:34.169Z,-3.53
2023-03-27T16:48:38.614Z,-3.26
2023-03-27T16:51:45.384Z,-3.22
2023-03-27T16:54:50.017Z,-2.84
2023-03-27T16:57:55.916Z,-2.89
2023-03-27T17:01:00.768Z,-3.36
2023-03-27T17:04:05.531Z,-3.23
2023-03-27T17:07:14.426Z,-3.31
2023-03-27T17:10:18.824Z,-3.65
2023-03-27T17:13:23.199Z,-3.47
2023-03-27T17:16:27.681Z,-3.64
2023-03-27T17:19:34.315Z,-3.49
2023-03-27T17:22:38.695Z,-3.53
2023-03-27T17:25:45.303Z,-3.83
2023-03-27T17:28:49.564Z,-3.48
2023-03-27T17:31:54.136Z,-3.34
2023-03-27T17:34:58.584Z,-3.33
2023-03-27T17:38:03.626Z,-3.66
2023-03-27T17:41:08.152Z,-3.21
2023-03-27T17:44:14.162Z,-3.09
2023-03-27T17:47:18.845Z,-2.44
2023-03-27T17:50:23.241Z,-2.41
2023-03-27T17:53:28.395Z,-1.83
2023-03-27T17:56:32.735Z,-1.63
2023-03-27T17:59:39.286Z,-1.39
2023-03-27T18:02:44.815Z,-1.53
2023-03-27T18:05:49.445Z,-1.26
2023-03-27T18:08:53.524Z,-1.03
2023-03-27T18:11:57.807Z,-0.97
2023-03-27T18:15:02.140Z,-1.02
2023-03-27T18:18:07.536Z,-0.98
2023-03-27T18:21:12.173Z,-0.89
2023-03-27T18:24:17.446Z,-0.89
2023-03-27T18:27:21.274Z,-0.91
2023-03-27T18:30:25.488Z,-0.96
2023-03-27T18:33:30.751Z,-0.79
2023-03-27T18:36:35.069Z,-0.91
2023-03-27T18:39:39.384Z,-0.65
2023-03-27T18:42:47.519Z,-0.62
2023-03-27T18:46:03.160Z,-0.83
2023-03-27T18:49:21.611Z,-1.03
2023-03-27T18:52:28.974Z,-1.47
2023-03-27T18:55:34.190Z,-1.71
2023-03-27T18:58:38.538Z,-1.87
2023-03-27T19:01:42.842Z,-1.95
2023-03-27T19:04:48.748Z,-2.02
2023-03-27T19:07:58.433Z,-1.99
2023-03-27T19:11:02.707Z,-2.33
2023-03-27T19:14:25.570Z,-2.60
2023-03-27T19:17:49.938Z,-2.92
2023-03-27T19:21:14.649Z,-3.32
2023-03-27T19:24:26.331Z,-3.22
2023-03-27T19:27:38.822Z,-3.25
2023-03-27T19:30:44.432Z,-3.46
2023-03-27T19:33:49.084Z,-3.51
2023-03-27T19:36:53.062Z,-3.34
2023-03-27T19:39:57.335Z,-3.44
2023-03-27T19:43:03.228Z,-3.32
2023-03-27T19:46:15.748Z,-3.04
2023-03-27T19:49:21.410Z,-3.39
2023-03-27T19:52:29.495Z,-3.57
2023-03-27T19:55:33.841Z,-4.39
2023-03-27T19:58:38.351Z,-3.64
2023-03-27T20:01:44.986Z,-4.13
2023-03-27T20:04:49.341Z,-4.04
2023-03-27T20:07:53.997Z,-3.96
2023-03-27T20:10:58.832Z,-4.00
2023-03-27T20:14:03.893Z,-3.92
2023-03-27T20:17:21.388Z,-3.74
2023-03-27T20:20:32.438Z,-3.51
2023-03-27T20:23:39.451Z,-3.72
2023-03-27T20:26:48.760Z,-3.97
2023-03-27T20:29:57.533Z,-3.74
2023-03-27T20:33:17.199Z,-3.72
2023-03-27T20:40:22.260Z,-3.67
2023-03-27T20:43:27.969Z,-3.70
2023-03-27T20:46:36.760Z,-4.02
2023-03-27T20:49:44.668Z,-3.75
2023-03-27T20:52:49.004Z,-3.96
2023-03-27T20:56:03.426Z,-3.98
2023-03-27T20:59:08.422Z,-4.02
2023-03-27T21:02:22.430Z,-3.90
2023-03-27T21:05:27.294Z,-4.01
2023-03-27T21:08:32.321Z,-3.71
2023-03-27T21:11:37.170Z,-3.38
2023-03-27T21:14:41.554Z,-3.11
2023-03-27T21:17:48.954Z,-3.28
2023-03-27T21:20:56.990Z,-2.81
2023-03-27T21:24:01.608Z,-2.79
2023-03-27T21:27:09.053Z,-2.09
2023-03-27T21:30:16.159Z,-1.74
2023-03-27T21:33:20.943Z,-1.10
2023-03-27T21:36:27.983Z,-0.26
2023-03-27T21:39:33.626Z,0.37
2023-03-27T21:42:37.915Z,0.65
2023-03-27T21:45:42.406Z,1.05
2023-03-27T21:48:50.972Z,1.26
2023-03-27T21:51:55.360Z,1.59
2023-03-27T21:55:03.333Z,1.49
2023-03-27T21:58:08.521Z,1.98
2023-03-27T22:01:12.989Z,2.39
2023-03-27T22:04:18.853Z,3.71
2023-03-27T22:07:24.187Z,4.35
2023-03-27T22:10:28.681Z,4.44
2023-03-27T22:13:32.999Z,5.16
2023-03-27T22:16:37.468Z,6.16
2023-03-27T22:19:41.524Z,6.53
2023-03-27T22:22:45.659Z,6.89
2023-03-27T22:25:56.363Z,7.26
2023-03-27T22:29:00.675Z,7.65
2023-03-27T22:32:05.709Z,7.01
2023-03-27T22:35:12.454Z,7.64
2023-03-27T22:38:17.495Z,6.92
2023-03-27T22:41:21.935Z,6.21
2023-03-27T22:44:27.070Z,6.66
2023-03-27T22:47:33.073Z,6.72
2023-03-27T22:50:37.416Z,6.53
2023-03-27T22:53:42.240Z,6.46
2023-03-27T22:56:47.606Z,6.08
2023-03-27T22:59:51.995Z,5.82
2023-03-27T23:02:56.799Z,6.21
2023-03-27T23:06:01.947Z,5.96
2023-03-27T23:09:06.510Z,6.36
2023-03-27T23:12:10.864Z,6.93
2023-03-27T23:15:14.734Z,7.40
2023-03-27T23:18:24.613Z,7.92
2023-03-27T23:21:28.983Z,7.32
2023-03-27T23:24:33.248Z,6.74
2023-03-27T23:27:37.776Z,6.89
2023-03-27T23:30:45.312Z,6.56
2023-03-27T23:33:51.948Z,7.04
2023-03-27T23:36:56.393Z,6.68
2023-03-27T23:40:00.640Z,6.26
2023-03-27T23:43:06.022Z,5.65
2023-03-27T23:46:11.280Z,6.08
2023-03-27T23:49:15.571Z,6.02
2023-03-27T23:52:19.747Z,6.43
2023-03-27T23:55:23.835Z,5.86
2023-03-27T23:58:29.478Z,6.15
